sensor_id;sensor_type;location;lat;lon;timestamp;pressure;altitude;pressure_sealevel;temperature;humidity
81812;BME280;71243;51.848;5.768;2023-07-30T00:02:03;100994.63;;;16.05;75.35
81812;BME280;71243;51.848;5.768;2023-07-30T00:04:28;100991.94;;;16.05;74.30
81812;BME280;71243;51.848;5.768;2023-07-30T00:06:53;100989.00;;;16.00;74.73
81812;BME280;71243;51.848;5.768;2023-07-30T00:09:19;100992.03;;;15.97;75.19
81812;BME280;71243;51.848;5.768;2023-07-30T00:11:44;100993.75;;;15.90;75.19
81812;BME280;71243;51.848;5.768;2023-07-30T00:14:09;100997.13;;;15.84;75.55
81812;BME280;71243;51.848;5.768;2023-07-30T00:16:34;100990.66;;;15.79;75.70
81812;BME280;71243;51.848;5.768;2023-07-30T00:19:00;100993.00;;;15.82;75.67
81812;BME280;71243;51.848;5.768;2023-07-30T00:21:25;100987.00;;;15.80;75.65
81812;BME280;71243;51.848;5.768;2023-07-30T00:23:50;100989.13;;;15.84;75.45
81812;BME280;71243;51.848;5.768;2023-07-30T00:26:15;100992.38;;;15.72;75.95
81812;BME280;71243;51.848;5.768;2023-07-30T00:28:40;100990.25;;;15.67;76.58
81812;BME280;71243;51.848;5.768;2023-07-30T00:31:06;100991.63;;;15.63;76.31
81812;BME280;71243;51.848;5.768;2023-07-30T00:33:31;100992.63;;;15.62;75.92
81812;BME280;71243;51.848;5.768;2023-07-30T00:35:56;100996.09;;;15.63;76.27
81812;BME280;71243;51.848;5.768;2023-07-30T00:38:21;100992.81;;;15.61;76.15
81812;BME280;71243;51.848;5.768;2023-07-30T00:40:47;100998.00;;;15.54;76.61
81812;BME280;71243;51.848;5.768;2023-07-30T00:43:12;100986.94;;;15.43;76.86
81812;BME280;71243;51.848;5.768;2023-07-30T00:45:40;100991.72;;;15.47;77.02
81812;BME280;71243;51.848;5.768;2023-07-30T00:48:06;100990.44;;;15.43;77.42
81812;BME280;71243;51.848;5.768;2023-07-30T00:50:31;100992.75;;;15.46;77.58
81812;BME280;71243;51.848;5.768;2023-07-30T00:52:58;100988.41;;;15.45;77.20
81812;BME280;71243;51.848;5.768;2023-07-30T00:55:23;100994.56;;;15.46;77.56
81812;BME280;71243;51.848;5.768;2023-07-30T00:57:48;101003.88;;;15.50;77.35
81812;BME280;71243;51.848;5.768;2023-07-30T01:00:14;101001.19;;;15.50;77.15
81812;BME280;71243;51.848;5.768;2023-07-30T01:02:40;101002.38;;;15.47;77.25
81812;BME280;71243;51.848;5.768;2023-07-30T01:05:05;101002.56;;;15.46;77.12
81812;BME280;71243;51.848;5.768;2023-07-30T01:07:31;101003.88;;;15.50;76.64
81812;BME280;71243;51.848;5.768;2023-07-30T01:09:57;101008.19;;;15.51;77.11
81812;BME280;71243;51.848;5.768;2023-07-30T01:12:23;101013.88;;;15.48;76.64
81812;BME280;71243;51.848;5.768;2023-07-30T01:14:48;101018.56;;;15.37;77.25
81812;BME280;71243;51.848;5.768;2023-07-30T01:17:14;101013.84;;;15.39;76.94
81812;BME280;71243;51.848;5.768;2023-07-30T01:19:40;101013.84;;;15.39;76.83
81812;BME280;71243;51.848;5.768;2023-07-30T01:22:05;101012.75;;;15.34;77.12
81812;BME280;71243;51.848;5.768;2023-07-30T01:24:31;101017.91;;;15.35;76.56
81812;BME280;71243;51.848;5.768;2023-07-30T01:27:03;101024.38;;;15.33;77.23
81812;BME280;71243;51.848;5.768;2023-07-30T01:29:42;101022.44;;;15.27;77.28
81812;BME280;71243;51.848;5.768;2023-07-30T01:32:12;101023.59;;;15.24;77.32
81812;BME280;71243;51.848;5.768;2023-07-30T01:34:40;101016.63;;;15.23;77.37
81812;BME280;71243;51.848;5.768;2023-07-30T01:37:08;101024.81;;;15.14;78.22
81812;BME280;71243;51.848;5.768;2023-07-30T01:39:36;101031.16;;;15.13;78.10
81812;BME280;71243;51.848;5.768;2023-07-30T01:42:02;101030.81;;;15.16;77.89
81812;BME280;71243;51.848;5.768;2023-07-30T01:44:28;101031.47;;;15.18;77.68
81812;BME280;71243;51.848;5.768;2023-07-30T01:46:53;101031.97;;;15.13;78.67
81812;BME280;71243;51.848;5.768;2023-07-30T01:49:18;101035.13;;;15.17;77.80
81812;BME280;71243;51.848;5.768;2023-07-30T01:51:43;101041.28;;;15.17;77.82
81812;BME280;71243;51.848;5.768;2023-07-30T01:54:08;101035.47;;;15.14;77.72
81812;BME280;71243;51.848;5.768;2023-07-30T01:56:34;101034.63;;;15.13;77.72
81812;BME280;71243;51.848;5.768;2023-07-30T01:58:59;101038.00;;;15.07;77.94
81812;BME280;71243;51.848;5.768;2023-07-30T02:01:24;101039.50;;;15.02;77.75
81812;BME280;71243;51.848;5.768;2023-07-30T02:03:49;101042.16;;;15.02;78.47
81812;BME280;71243;51.848;5.768;2023-07-30T02:06:15;101044.13;;;15.08;78.27
81812;BME280;71243;51.848;5.768;2023-07-30T02:08:40;101042.13;;;15.10;78.22
81812;BME280;71243;51.848;5.768;2023-07-30T02:11:05;101039.47;;;15.10;78.10
81812;BME280;71243;51.848;5.768;2023-07-30T02:13:30;101042.13;;;15.10;77.76
81812;BME280;71243;51.848;5.768;2023-07-30T02:15:56;101036.81;;;15.10;78.24
81812;BME280;71243;51.848;5.768;2023-07-30T02:18:21;101033.47;;;15.16;78.30
81812;BME280;71243;51.848;5.768;2023-07-30T02:20:46;101029.84;;;15.09;78.52
81812;BME280;71243;51.848;5.768;2023-07-30T02:23:14;101023.84;;;15.07;79.00
81812;BME280;71243;51.848;5.768;2023-07-30T02:25:39;101023.97;;;15.13;78.56
81812;BME280;71243;51.848;5.768;2023-07-30T02:28:04;101028.38;;;14.98;78.99
81812;BME280;71243;51.848;5.768;2023-07-30T02:30:30;101020.56;;;14.97;79.31
81812;BME280;71243;51.848;5.768;2023-07-30T02:32:55;101017.59;;;14.92;79.55
81812;BME280;71243;51.848;5.768;2023-07-30T02:35:20;101024.22;;;14.96;79.47
81812;BME280;71243;51.848;5.768;2023-07-30T02:37:45;101017.91;;;14.97;79.97
81812;BME280;71243;51.848;5.768;2023-07-30T02:40:11;101016.91;;;14.98;79.96
81812;BME280;71243;51.848;5.768;2023-07-30T02:42:36;101015.25;;;14.97;79.89
81812;BME280;71243;51.848;5.768;2023-07-30T02:45:02;101019.56;;;14.98;80.42
81812;BME280;71243;51.848;5.768;2023-07-30T02:47:27;101017.22;;;15.03;80.23
81812;BME280;71243;51.848;5.768;2023-07-30T02:49:53;101013.75;;;15.02;80.43
81812;BME280;71243;51.848;5.768;2023-07-30T02:52:18;101012.91;;;15.02;80.62
81812;BME280;71243;51.848;5.768;2023-07-30T02:54:43;101012.38;;;15.06;80.70
81812;BME280;71243;51.848;5.768;2023-07-30T02:57:08;101010.00;;;15.11;80.33
81812;BME280;71243;51.848;5.768;2023-07-30T02:59:33;101000.56;;;15.09;80.98
81812;BME280;71243;51.848;5.768;2023-07-30T03:01:59;101008.69;;;15.15;80.63
81812;BME280;71243;51.848;5.768;2023-07-30T03:04:24;101002.22;;;15.10;80.81
81812;BME280;71243;51.848;5.768;2023-07-30T03:06:49;101002.22;;;15.10;81.10
81812;BME280;71243;51.848;5.768;2023-07-30T03:09:14;101008.38;;;15.10;80.94
81812;BME280;71243;51.848;5.768;2023-07-30T03:11:40;101017.00;;;15.12;81.07
81812;BME280;71243;51.848;5.768;2023-07-30T03:14:05;101014.84;;;15.16;80.68
81812;BME280;71243;51.848;5.768;2023-07-30T03:16:30;101012.00;;;15.17;80.77
81812;BME280;71243;51.848;5.768;2023-07-30T03:18:55;101012.66;;;15.11;80.57
81812;BME280;71243;51.848;5.768;2023-07-30T03:21:20;101019.00;;;15.10;80.71
81812;BME280;71243;51.848;5.768;2023-07-30T03:23:46;101013.88;;;15.09;80.71
81812;BME280;71243;51.848;5.768;2023-07-30T03:26:11;101018.19;;;15.10;80.81
81812;BME280;71243;51.848;5.768;2023-07-30T03:28:36;101019.38;;;15.07;81.05
81812;BME280;71243;51.848;5.768;2023-07-30T03:31:01;101016.34;;;15.10;80.75
81812;BME280;71243;51.848;5.768;2023-07-30T03:33:27;101009.22;;;15.03;81.21
81812;BME280;71243;51.848;5.768;2023-07-30T03:35:52;101014.38;;;15.04;81.21
81812;BME280;71243;51.848;5.768;2023-07-30T03:38:17;101021.72;;;15.02;81.56
81812;BME280;71243;51.848;5.768;2023-07-30T03:40:42;101018.25;;;14.94;82.31
81812;BME280;71243;51.848;5.768;2023-07-30T03:43:08;101018.09;;;14.95;82.43
81812;BME280;71243;51.848;5.768;2023-07-30T03:45:33;101023.72;;;15.00;82.43
81812;BME280;71243;51.848;5.768;2023-07-30T03:47:58;101018.72;;;15.05;82.26
81812;BME280;71243;51.848;5.768;2023-07-30T03:50:24;101020.66;;;15.11;82.41
81812;BME280;71243;51.848;5.768;2023-07-30T03:52:49;101023.97;;;15.13;82.35
81812;BME280;71243;51.848;5.768;2023-07-30T03:55:14;101032.63;;;15.15;82.55
81812;BME280;71243;51.848;5.768;2023-07-30T03:57:40;101030.16;;;15.14;82.81
81812;BME280;71243;51.848;5.768;2023-07-30T04:00:05;101028.00;;;15.09;83.46
81812;BME280;71243;51.848;5.768;2023-07-30T04:02:31;101033.47;;;15.16;83.18
81812;BME280;71243;51.848;5.768;2023-07-30T04:04:56;101033.28;;;15.17;83.06
81812;BME280;71243;51.848;5.768;2023-07-30T04:07:21;101033.94;;;15.19;83.23
81812;BME280;71243;51.848;5.768;2023-07-30T04:09:46;101029.59;;;15.18;82.92
81812;BME280;71243;51.848;5.768;2023-07-30T04:12:12;101039.94;;;15.21;83.02
81812;BME280;71243;51.848;5.768;2023-07-30T04:14:37;101039.22;;;15.27;82.98
81812;BME280;71243;51.848;5.768;2023-07-30T04:17:02;101036.56;;;15.27;83.25
81812;BME280;71243;51.848;5.768;2023-07-30T04:19:27;101038.41;;;15.27;83.33
81812;BME280;71243;51.848;5.768;2023-07-30T04:21:53;101040.19;;;15.34;83.10
81812;BME280;71243;51.848;5.768;2023-07-30T04:24:18;101033.41;;;15.32;83.56
81812;BME280;71243;51.848;5.768;2023-07-30T04:26:43;101041.88;;;15.35;83.38
81812;BME280;71243;51.848;5.768;2023-07-30T04:29:08;101032.69;;;15.38;83.38
81812;BME280;71243;51.848;5.768;2023-07-30T04:31:34;101035.69;;;15.35;83.05
81812;BME280;71243;51.848;5.768;2023-07-30T04:33:59;101038.31;;;15.51;82.57
81812;BME280;71243;51.848;5.768;2023-07-30T04:36:24;101042.31;;;15.47;83.03
81812;BME280;71243;51.848;5.768;2023-07-30T04:38:50;101035.72;;;15.43;83.38
81812;BME280;71243;51.848;5.768;2023-07-30T04:41:15;101050.00;;;15.42;83.17
81812;BME280;71243;51.848;5.768;2023-07-30T04:43:40;101047.16;;;15.44;83.26
81812;BME280;71243;51.848;5.768;2023-07-30T04:46:05;101059.63;;;15.51;82.76
81812;BME280;71243;51.848;5.768;2023-07-30T04:48:30;101057.13;;;15.50;83.02
81812;BME280;71243;51.848;5.768;2023-07-30T04:50:56;101054.94;;;15.53;83.01
81812;BME280;71243;51.848;5.768;2023-07-30T04:53:21;101061.25;;;15.52;83.19
81812;BME280;71243;51.848;5.768;2023-07-30T04:55:46;101055.59;;;15.55;83.06
81812;BME280;71243;51.848;5.768;2023-07-30T04:58:11;101056.25;;;15.57;83.28
81812;BME280;71243;51.848;5.768;2023-07-30T05:00:37;101057.72;;;15.60;83.15
81812;BME280;71243;51.848;5.768;2023-07-30T05:03:02;101065.84;;;15.66;83.05
81812;BME280;71243;51.848;5.768;2023-07-30T05:05:27;101064.19;;;15.65;83.36
81812;BME280;71243;51.848;5.768;2023-07-30T05:07:53;101069.88;;;15.62;82.94
81812;BME280;71243;51.848;5.768;2023-07-30T05:10:18;101061.41;;;15.59;83.40
81812;BME280;71243;51.848;5.768;2023-07-30T05:12:43;101062.88;;;15.61;82.79
81812;BME280;71243;51.848;5.768;2023-07-30T05:15:08;101067.22;;;15.62;83.57
81812;BME280;71243;51.848;5.768;2023-07-30T05:17:34;101067.41;;;15.61;83.65
81812;BME280;71243;51.848;5.768;2023-07-30T05:19:59;101068.19;;;15.69;83.35
81812;BME280;71243;51.848;5.768;2023-07-30T05:22:24;101081.78;;;15.74;82.80
81812;BME280;71243;51.848;5.768;2023-07-30T05:24:49;101080.94;;;15.74;83.00
81812;BME280;71243;51.848;5.768;2023-07-30T05:27:15;101072.78;;;15.75;82.94
81812;BME280;71243;51.848;5.768;2023-07-30T05:29:40;101076.75;;;15.79;83.19
81812;BME280;71243;51.848;5.768;2023-07-30T05:32:06;101078.25;;;15.82;82.50
81812;BME280;71243;51.848;5.768;2023-07-30T05:34:31;101079.91;;;15.83;83.12
81812;BME280;71243;51.848;5.768;2023-07-30T05:36:56;101071.91;;;15.83;82.44
81812;BME280;71243;51.848;5.768;2023-07-30T05:39:22;101072.09;;;15.81;82.27
81812;BME280;71243;51.848;5.768;2023-07-30T05:41:47;101075.22;;;15.85;82.21
81812;BME280;71243;51.848;5.768;2023-07-30T05:44:12;101082.75;;;15.81;82.58
81812;BME280;71243;51.848;5.768;2023-07-30T05:46:37;101082.50;;;15.91;82.94
81812;BME280;71243;51.848;5.768;2023-07-30T05:49:02;101082.97;;;15.94;82.50
81812;BME280;71243;51.848;5.768;2023-07-30T05:51:28;101094.13;;;15.98;82.42
81812;BME280;71243;51.848;5.768;2023-07-30T05:53:53;101083.41;;;16.06;82.26
81812;BME280;71243;51.848;5.768;2023-07-30T05:56:18;101090.28;;;16.00;82.69
81812;BME280;71243;51.848;5.768;2023-07-30T05:58:44;101086.91;;;16.06;82.38
81812;BME280;71243;51.848;5.768;2023-07-30T06:01:09;101089.22;;;16.09;81.93
81812;BME280;71243;51.848;5.768;2023-07-30T06:03:34;101091.34;;;16.14;81.93
81812;BME280;71243;51.848;5.768;2023-07-30T06:06:01;101096.75;;;16.06;82.43
81812;BME280;71243;51.848;5.768;2023-07-30T06:08:26;101094.44;;;16.03;82.14
81812;BME280;71243;51.848;5.768;2023-07-30T06:10:51;101087.06;;;16.05;82.21
81812;BME280;71243;51.848;5.768;2023-07-30T06:13:17;101091.88;;;16.09;81.69
81812;BME280;71243;51.848;5.768;2023-07-30T06:15:42;101086.66;;;16.16;81.96
81812;BME280;71243;51.848;5.768;2023-07-30T06:18:07;101088.84;;;16.12;81.70
81812;BME280;71243;51.848;5.768;2023-07-30T06:20:32;101083.16;;;16.15;81.49
81812;BME280;71243;51.848;5.768;2023-07-30T06:22:58;101079.97;;;16.20;81.51
81812;BME280;71243;51.848;5.768;2023-07-30T06:25:23;101073.16;;;16.17;82.39
81812;BME280;71243;51.848;5.768;2023-07-30T06:27:48;101071.97;;;16.20;81.95
81812;BME280;71243;51.848;5.768;2023-07-30T06:30:13;101069.22;;;16.28;81.47
81812;BME280;71243;51.848;5.768;2023-07-30T06:32:39;101072.84;;;16.35;81.22
81812;BME280;71243;51.848;5.768;2023-07-30T06:35:04;101090.84;;;16.33;81.00
81812;BME280;71243;51.848;5.768;2023-07-30T06:37:30;101087.91;;;16.28;80.90
81812;BME280;71243;51.848;5.768;2023-07-30T06:39:55;101098.22;;;16.31;81.67
81812;BME280;71243;51.848;5.768;2023-07-30T06:42:20;101094.16;;;16.35;81.54
81812;BME280;71243;51.848;5.768;2023-07-30T06:44:46;101086.81;;;16.37;81.44
81812;BME280;71243;51.848;5.768;2023-07-30T06:47:11;101093.94;;;16.44;81.47
81812;BME280;71243;51.848;5.768;2023-07-30T06:49:36;101090.56;;;16.51;81.11
81812;BME280;71243;51.848;5.768;2023-07-30T06:52:01;101092.69;;;16.55;81.35
81812;BME280;71243;51.848;5.768;2023-07-30T06:54:29;101085.25;;;16.65;80.78
81812;BME280;71243;51.848;5.768;2023-07-30T06:56:54;101092.44;;;16.65;81.21
81812;BME280;71243;51.848;5.768;2023-07-30T06:59:19;101090.78;;;16.64;80.90
81812;BME280;71243;51.848;5.768;2023-07-30T07:01:45;101092.75;;;16.70;80.70
81812;BME280;71243;51.848;5.768;2023-07-30T07:04:10;101096.59;;;16.67;80.56
81812;BME280;71243;51.848;5.768;2023-07-30T07:06:35;101091.72;;;16.71;79.91
81812;BME280;71243;51.848;5.768;2023-07-30T07:09:00;101089.69;;;16.73;80.15
81812;BME280;71243;51.848;5.768;2023-07-30T07:11:26;101085.47;;;16.78;80.29
81812;BME280;71243;51.848;5.768;2023-07-30T07:13:51;101086.03;;;16.88;80.31
81812;BME280;71243;51.848;5.768;2023-07-30T07:16:16;101089.91;;;17.00;80.18
81812;BME280;71243;51.848;5.768;2023-07-30T07:18:41;101081.34;;;17.05;78.80
81812;BME280;71243;51.848;5.768;2023-07-30T07:21:07;101095.06;;;17.16;78.44
81812;BME280;71243;51.848;5.768;2023-07-30T07:23:32;101093.13;;;17.25;78.90
81812;BME280;71243;51.848;5.768;2023-07-30T07:25:57;101091.00;;;17.35;78.07
81812;BME280;71243;51.848;5.768;2023-07-30T07:28:22;101092.66;;;17.36;76.89
81812;BME280;71243;51.848;5.768;2023-07-30T07:30:48;101096.34;;;17.35;77.38
81812;BME280;71243;51.848;5.768;2023-07-30T07:33:13;101096.63;;;17.25;76.49
81812;BME280;71243;51.848;5.768;2023-07-30T07:35:39;101096.44;;;17.27;76.53
81812;BME280;71243;51.848;5.768;2023-07-30T07:38:04;101106.75;;;17.30;76.51
81812;BME280;71243;51.848;5.768;2023-07-30T07:40:30;101103.53;;;17.34;76.08
81812;BME280;71243;51.848;5.768;2023-07-30T07:42:55;101103.59;;;17.41;76.33
81812;BME280;71243;51.848;5.768;2023-07-30T07:45:20;101113.09;;;17.43;75.64
81812;BME280;71243;51.848;5.768;2023-07-30T07:47:46;101099.84;;;17.50;75.96
81812;BME280;71243;51.848;5.768;2023-07-30T07:50:11;101105.84;;;17.52;75.47
81812;BME280;71243;51.848;5.768;2023-07-30T07:52:36;101105.66;;;17.53;75.76
81812;BME280;71243;51.848;5.768;2023-07-30T07:55:01;101115.59;;;17.60;74.95
81812;BME280;71243;51.848;5.768;2023-07-30T07:57:27;101120.38;;;17.64;75.06
81812;BME280;71243;51.848;5.768;2023-07-30T07:59:52;101120.50;;;17.56;75.58
81812;BME280;71243;51.848;5.768;2023-07-30T08:02:17;101120.00;;;17.67;75.97
81812;BME280;71243;51.848;5.768;2023-07-30T08:04:42;101124.16;;;17.70;75.33
81812;BME280;71243;51.848;5.768;2023-07-30T08:07:08;101110.59;;;17.57;75.69
81812;BME280;71243;51.848;5.768;2023-07-30T08:09:33;101120.66;;;17.54;75.76
81812;BME280;71243;51.848;5.768;2023-07-30T08:11:59;101118.44;;;17.58;75.40
81812;BME280;71243;51.848;5.768;2023-07-30T08:14:24;101121.03;;;17.66;75.25
81812;BME280;71243;51.848;5.768;2023-07-30T08:16:50;101113.66;;;17.68;76.09
81812;BME280;71243;51.848;5.768;2023-07-30T08:19:15;101111.31;;;17.80;75.34
81812;BME280;71243;51.848;5.768;2023-07-30T08:21:40;101113.31;;;17.78;74.84
81812;BME280;71243;51.848;5.768;2023-07-30T08:24:05;101121.34;;;17.78;74.76
81812;BME280;71243;51.848;5.768;2023-07-30T08:26:32;101116.44;;;17.81;74.62
81812;BME280;71243;51.848;5.768;2023-07-30T08:28:57;101112.53;;;17.77;73.59
81812;BME280;71243;51.848;5.768;2023-07-30T08:31:23;101117.69;;;17.79;74.11
81812;BME280;71243;51.848;5.768;2023-07-30T08:33:48;101111.56;;;17.85;74.29
81812;BME280;71243;51.848;5.768;2023-07-30T08:36:13;101113.88;;;17.88;74.01
81812;BME280;71243;51.848;5.768;2023-07-30T08:38:38;101116.41;;;17.96;73.68
81812;BME280;71243;51.848;5.768;2023-07-30T08:41:04;101116.22;;;17.97;73.93
81812;BME280;71243;51.848;5.768;2023-07-30T08:43:29;101118.34;;;18.02;73.99
81812;BME280;71243;51.848;5.768;2023-07-30T08:45:55;101116.94;;;18.06;74.33
81812;BME280;71243;51.848;5.768;2023-07-30T08:48:20;101117.22;;;18.11;73.62
81812;BME280;71243;51.848;5.768;2023-07-30T08:50:48;101117.66;;;18.14;72.90
81812;BME280;71243;51.848;5.768;2023-07-30T08:53:13;101113.50;;;18.12;71.72
81812;BME280;71243;51.848;5.768;2023-07-30T08:55:40;101116.75;;;18.07;72.28
81812;BME280;71243;51.848;5.768;2023-07-30T08:58:06;101125.41;;;18.09;71.89
81812;BME280;71243;51.848;5.768;2023-07-30T09:00:34;101138.22;;;18.14;72.07
81812;BME280;71243;51.848;5.768;2023-07-30T09:03:03;101131.34;;;18.05;71.83
81812;BME280;71243;51.848;5.768;2023-07-30T09:05:29;101125.50;;;18.16;72.58
81812;BME280;71243;51.848;5.768;2023-07-30T09:07:55;101137.09;;;18.23;72.15
81812;BME280;71243;51.848;5.768;2023-07-30T09:10:21;101126.94;;;18.18;70.75
81812;BME280;71243;51.848;5.768;2023-07-30T09:12:52;101134.97;;;18.18;71.30
81812;BME280;71243;51.848;5.768;2023-07-30T09:15:18;101123.72;;;18.23;72.00
81812;BME280;71243;51.848;5.768;2023-07-30T09:17:45;101135.50;;;18.28;72.03
81812;BME280;71243;51.848;5.768;2023-07-30T09:20:10;101125.59;;;18.29;70.42
81812;BME280;71243;51.848;5.768;2023-07-30T09:22:36;101127.06;;;18.31;71.13
81812;BME280;71243;51.848;5.768;2023-07-30T09:25:02;101135.22;;;18.23;70.77
81812;BME280;71243;51.848;5.768;2023-07-30T09:27:28;101127.28;;;18.30;71.44
81812;BME280;71243;51.848;5.768;2023-07-30T09:29:55;101142.72;;;18.49;71.94
81812;BME280;71243;51.848;5.768;2023-07-30T09:32:28;101131.75;;;18.44;69.76
81812;BME280;71243;51.848;5.768;2023-07-30T09:34:55;101139.41;;;18.47;70.17
81812;BME280;71243;51.848;5.768;2023-07-30T09:37:20;101133.91;;;18.55;70.22
81812;BME280;71243;51.848;5.768;2023-07-30T09:39:47;101128.22;;;18.65;70.52
81812;BME280;71243;51.848;5.768;2023-07-30T09:42:13;101123.06;;;18.63;68.46
81812;BME280;71243;51.848;5.768;2023-07-30T09:44:38;101121.59;;;18.60;68.88
81812;BME280;71243;51.848;5.768;2023-07-30T09:47:03;101121.22;;;18.64;68.15
81812;BME280;71243;51.848;5.768;2023-07-30T09:49:29;101131.09;;;18.63;68.14
81812;BME280;71243;51.848;5.768;2023-07-30T09:51:54;101140.53;;;18.59;68.06
81812;BME280;71243;51.848;5.768;2023-07-30T09:54:19;101147.16;;;18.63;68.07
81812;BME280;71243;51.848;5.768;2023-07-30T09:56:45;101139.81;;;18.72;68.09
81812;BME280;71243;51.848;5.768;2023-07-30T09:59:10;101140.41;;;18.67;68.92
81812;BME280;71243;51.848;5.768;2023-07-30T10:01:38;101146.56;;;18.68;68.67
81812;BME280;71243;51.848;5.768;2023-07-30T10:04:08;101148.59;;;18.66;67.22
81812;BME280;71243;51.848;5.768;2023-07-30T10:06:48;101152.31;;;18.65;67.14
81812;BME280;71243;51.848;5.768;2023-07-30T10:09:17;101172.78;;;18.72;68.05
81812;BME280;71243;51.848;5.768;2023-07-30T10:11:45;101168.88;;;18.75;67.02
81812;BME280;71243;51.848;5.768;2023-07-30T10:14:12;101166.63;;;18.78;66.41
81812;BME280;71243;51.848;5.768;2023-07-30T10:16:38;101168.22;;;18.73;65.13
81812;BME280;71243;51.848;5.768;2023-07-30T10:19:03;101171.50;;;18.68;63.54
81812;BME280;71243;51.848;5.768;2023-07-30T10:21:28;101170.03;;;18.66;62.04
81812;BME280;71243;51.848;5.768;2023-07-30T10:24:03;101170.91;;;18.51;61.72
81812;BME280;71243;51.848;5.768;2023-07-30T10:26:35;101177.09;;;18.52;62.35
81812;BME280;71243;51.848;5.768;2023-07-30T10:29:17;101169.41;;;18.42;64.28
81812;BME280;71243;51.848;5.768;2023-07-30T10:31:55;101180.66;;;18.38;64.47
81812;BME280;71243;51.848;5.768;2023-07-30T10:34:21;101177.06;;;18.31;65.53
81812;BME280;71243;51.848;5.768;2023-07-30T10:36:50;101185.69;;;18.26;66.35
81812;BME280;71243;51.848;5.768;2023-07-30T10:39:28;101185.97;;;18.17;67.21
81812;BME280;71243;51.848;5.768;2023-07-30T10:41:56;101182.81;;;18.28;67.00
81812;BME280;71243;51.848;5.768;2023-07-30T10:46:55;101190.00;;;18.63;66.78
81812;BME280;71243;51.848;5.768;2023-07-30T10:49:21;101186.22;;;18.57;67.33
81812;BME280;71243;51.848;5.768;2023-07-30T10:51:46;101183.59;;;18.64;67.19
81812;BME280;71243;51.848;5.768;2023-07-30T10:54:11;101182.34;;;18.81;66.98
81812;BME280;71243;51.848;5.768;2023-07-30T10:56:37;101184.25;;;18.94;67.49
81812;BME280;71243;51.848;5.768;2023-07-30T10:59:04;101196.50;;;19.03;67.26
81812;BME280;71243;51.848;5.768;2023-07-30T11:01:29;101197.78;;;19.07;66.26
81812;BME280;71243;51.848;5.768;2023-07-30T11:03:55;101199.53;;;19.21;66.34
81812;BME280;71243;51.848;5.768;2023-07-30T11:06:24;101201.00;;;19.23;65.19
81812;BME280;71243;51.848;5.768;2023-07-30T11:08:50;101192.53;;;19.20;66.22
81812;BME280;71243;51.848;5.768;2023-07-30T11:11:15;101197.59;;;19.36;65.84
81812;BME280;71243;51.848;5.768;2023-07-30T11:13:45;101195.84;;;19.56;65.42
81812;BME280;71243;51.848;5.768;2023-07-30T11:16:11;101188.75;;;19.76;64.88
81812;BME280;71243;51.848;5.768;2023-07-30T11:18:37;101189.00;;;19.94;63.85
81812;BME280;71243;51.848;5.768;2023-07-30T11:21:07;101179.75;;;19.97;63.95
81812;BME280;71243;51.848;5.768;2023-07-30T11:23:33;101184.78;;;20.19;64.34
81812;BME280;71243;51.848;5.768;2023-07-30T11:26:03;101176.19;;;20.50;62.66
81812;BME280;71243;51.848;5.768;2023-07-30T11:30:55;101176.63;;;20.86;61.45
81812;BME280;71243;51.848;5.768;2023-07-30T11:33:21;101182.63;;;20.75;61.69
81812;BME280;71243;51.848;5.768;2023-07-30T11:35:47;101188.25;;;21.00;62.24
81812;BME280;71243;51.848;5.768;2023-07-30T11:38:12;101197.31;;;21.05;60.81
81812;BME280;71243;51.848;5.768;2023-07-30T11:40:38;101187.38;;;20.80;59.15
81812;BME280;71243;51.848;5.768;2023-07-30T11:43:04;101193.78;;;20.65;59.65
81812;BME280;71243;51.848;5.768;2023-07-30T11:45:29;101198.28;;;20.45;61.05
81812;BME280;71243;51.848;5.768;2023-07-30T11:48:11;101197.66;;;20.43;61.14
81812;BME280;71243;51.848;5.768;2023-07-30T11:51:02;101207.59;;;20.43;60.27
81812;BME280;71243;51.848;5.768;2023-07-30T11:53:51;101218.09;;;20.44;59.69
81812;BME280;71243;51.848;5.768;2023-07-30T11:56:17;101215.84;;;20.41;58.95
81812;BME280;71243;51.848;5.768;2023-07-30T11:58:42;101217.47;;;20.36;59.66
81812;BME280;71243;51.848;5.768;2023-07-30T12:01:08;101211.88;;;20.31;59.90
81812;BME280;71243;51.848;5.768;2023-07-30T12:03:33;101214.16;;;20.34;60.37
81812;BME280;71243;51.848;5.768;2023-07-30T12:06:04;101208.22;;;20.58;60.07
81812;BME280;71243;51.848;5.768;2023-07-30T12:08:29;101210.72;;;20.79;58.90
81812;BME280;71243;51.848;5.768;2023-07-30T12:10:55;101214.25;;;21.06;58.49
81812;BME280;71243;51.848;5.768;2023-07-30T12:13:20;101214.88;;;21.14;57.76
81812;BME280;71243;51.848;5.768;2023-07-30T12:15:52;101209.91;;;21.31;54.61
81812;BME280;71243;51.848;5.768;2023-07-30T12:18:19;101211.34;;;21.40;54.87
81812;BME280;71243;51.848;5.768;2023-07-30T12:20:44;101219.16;;;21.61;54.02
81812;BME280;71243;51.848;5.768;2023-07-30T12:23:10;101219.31;;;21.72;51.39
81812;BME280;71243;51.848;5.768;2023-07-30T12:25:35;101217.88;;;21.76;50.64
81812;BME280;71243;51.848;5.768;2023-07-30T12:28:00;101213.94;;;21.72;50.26
81812;BME280;71243;51.848;5.768;2023-07-30T12:30:26;101221.00;;;21.80;50.37
81812;BME280;71243;51.848;5.768;2023-07-30T12:32:51;101215.81;;;21.78;49.86
81812;BME280;71243;51.848;5.768;2023-07-30T12:35:16;101214.56;;;21.74;50.61
81812;BME280;71243;51.848;5.768;2023-07-30T12:37:41;101215.19;;;21.76;50.93
81812;BME280;71243;51.848;5.768;2023-07-30T12:40:07;101228.22;;;21.86;50.41
81812;BME280;71243;51.848;5.768;2023-07-30T12:42:32;101224.88;;;21.77;49.07
81812;BME280;71243;51.848;5.768;2023-07-30T12:44:58;101218.31;;;21.80;49.26
81812;BME280;71243;51.848;5.768;2023-07-30T12:47:23;101228.22;;;21.73;49.27
81812;BME280;71243;51.848;5.768;2023-07-30T12:49:48;101221.00;;;21.73;51.10